createdAt,value
2023-01-23T00:03:05.326Z,99.07
2023-01-23T00:07:57.017Z,98.62
2023-01-23T00:12:53.377Z,98.44
2023-01-23T00:17:45.703Z,97.79
2023-01-23T00:22:37.413Z,97.93
2023-01-23T00:27:29.229Z,97.96
2023-01-23T00:32:21.666Z,97.69
2023-01-23T00:37:14.082Z,97.77
2023-01-23T00:42:06.172Z,98.37
2023-01-23T00:46:58.976Z,98.18
2023-01-23T00:51:50.806Z,99.07
2023-01-23T00:56:43.050Z,98.80
2023-01-23T01:01:35.216Z,98.96
2023-01-23T01:06:28.830Z,99.07
2023-01-23T01:11:20.561Z,99.15
2023-01-23T01:16:12.573Z,99.45
2023-01-23T01:21:09.072Z,99.43
2023-01-23T01:26:01.564Z,99.90
2023-01-23T01:30:53.286Z,100.00
2023-01-23T01:35:44.998Z,100.00
2023-01-23T01:40:38.046Z,99.96
2023-01-23T01:46:07.436Z,100.00
2023-01-23T01:51:00.722Z,100.00
2023-01-23T01:55:52.840Z,100.00
2023-01-23T02:00:44.624Z,100.00
2023-01-23T02:05:45.547Z,100.00
2023-01-23T02:10:37.528Z,100.00
2023-01-23T02:15:29.330Z,100.00
2023-01-23T02:20:24.870Z,100.00
2023-01-23T02:25:22.884Z,100.00
2023-01-23T02:30:16.251Z,100.00
2023-01-23T02:35:17.467Z,100.00
2023-01-23T02:40:10.101Z,100.00
2023-01-23T02:45:02.204Z,100.00
2023-01-23T02:49:54.076Z,100.00
2023-01-23T02:54:46.701Z,100.00
2023-01-23T02:59:56.755Z,100.00
2023-01-23T03:04:48.511Z,100.00
2023-01-23T03:09:40.321Z,100.00
2023-01-23T03:14:32.452Z,100.00
2023-01-23T03:19:26.763Z,100.00
2023-01-23T03:24:19.772Z,100.00
2023-01-23T03:29:42.227Z,100.00
2023-01-23T03:34:34.219Z,100.00
2023-01-23T03:39:44.760Z,100.00
2023-01-23T03:44:36.555Z,100.00
2023-01-23T03:49:28.507Z,100.00
2023-01-23T03:54:20.171Z,100.00
2023-01-23T03:59:12.067Z,100.00
2023-01-23T04:04:04.733Z,100.00
2023-01-23T04:08:58.293Z,100.00
2023-01-23T04:13:50.397Z,100.00
2023-01-23T04:18:42.224Z,100.00
2023-01-23T04:23:33.913Z,100.00
2023-01-23T04:28:25.761Z,100.00
2023-01-23T04:33:18.680Z,100.00
2023-01-23T04:38:10.377Z,100.00
2023-01-23T04:43:02.188Z,100.00
2023-01-23T04:47:53.911Z,100.00
2023-01-23T04:52:45.814Z,100.00
2023-01-23T04:57:37.493Z,100.00
2023-01-23T05:02:29.305Z,100.00
2023-01-23T05:07:21.085Z,100.00
2023-01-23T05:12:12.759Z,100.00
2023-01-23T05:17:04.471Z,100.00
2023-01-23T05:21:56.295Z,100.00
2023-01-23T05:26:48.098Z,100.00
2023-01-23T05:31:40.010Z,100.00
2023-01-23T05:36:31.840Z,100.00
2023-01-23T05:41:25.656Z,100.00
2023-01-23T05:46:17.939Z,100.00
2023-01-23T05:51:09.829Z,100.00
2023-01-23T05:56:08.590Z,100.00
2023-01-23T06:01:02.809Z,100.00
2023-01-23T06:05:54.534Z,100.00
2023-01-23T06:10:46.277Z,100.00
2023-01-23T06:15:38.356Z,100.00
2023-01-23T06:20:30.158Z,100.00
2023-01-23T06:25:23.018Z,100.00
2023-01-23T06:30:16.693Z,100.00
2023-01-23T06:35:09.042Z,100.00
2023-01-23T06:40:00.823Z,100.00
2023-01-23T06:44:52.675Z,100.00
2023-01-23T06:49:44.363Z,100.00
2023-01-23T06:54:38.950Z,100.00
2023-01-23T06:59:30.753Z,100.00
2023-01-23T07:04:24.805Z,100.00
2023-01-23T07:09:16.490Z,100.00
2023-01-23T07:14:08.300Z,100.00
2023-01-23T07:19:01.644Z,100.00
2023-01-23T07:23:53.414Z,100.00
2023-01-23T07:28:45.240Z,100.00
2023-01-23T07:33:36.927Z,100.00
2023-01-23T07:38:28.970Z,100.00
2023-01-23T07:43:20.622Z,100.00
2023-01-23T07:48:12.564Z,100.00
2023-01-23T07:53:05.941Z,100.00
2023-01-23T07:57:57.884Z,100.00
2023-01-23T08:02:49.519Z,100.00
2023-01-23T08:07:41.341Z,100.00
2023-01-23T08:12:33.493Z,100.00
2023-01-23T08:17:25.249Z,100.00
2023-01-23T08:22:17.050Z,100.00
2023-01-23T08:27:09.004Z,100.00
2023-01-23T08:32:00.733Z,100.00
2023-01-23T08:36:52.639Z,100.00
2023-01-23T08:41:44.587Z,100.00
2023-01-23T08:46:36.475Z,100.00
2023-01-23T08:51:28.364Z,100.00
2023-01-23T08:56:22.319Z,100.00
2023-01-23T09:01:16.104Z,100.00
2023-01-23T09:06:09.256Z,100.00
2023-01-23T09:11:06.282Z,100.00
2023-01-23T09:15:58.527Z,100.00
2023-01-23T09:20:50.481Z,100.00
2023-01-23T09:25:42.891Z,100.00
2023-01-23T09:30:35.209Z,100.00
2023-01-23T09:35:27.215Z,100.00
2023-01-23T09:40:22.732Z,100.00
2023-01-23T09:45:20.369Z,100.00
2023-01-23T09:50:22.128Z,100.00
2023-01-23T09:55:49.270Z,100.00
2023-01-23T10:00:41.038Z,100.00
2023-01-23T10:05:47.129Z,100.00
2023-01-23T10:11:23.628Z,100.00
2023-01-23T10:16:49.422Z,100.00
2023-01-23T10:22:00.998Z,100.00
2023-01-23T10:26:56.336Z,100.00
2023-01-23T10:31:56.436Z,100.00
2023-01-23T10:37:16.153Z,100.00
2023-01-23T10:42:13.767Z,100.00
2023-01-23T10:47:19.990Z,100.00
2023-01-23T10:52:39.226Z,98.90
2023-01-23T10:57:45.265Z,95.13
2023-01-23T11:02:40.897Z,95.73
2023-01-23T11:07:37.995Z,93.07
2023-01-23T11:12:32.722Z,91.36
2023-01-23T11:17:32.685Z,89.16
2023-01-23T11:22:31.997Z,89.82
2023-01-23T11:27:30.088Z,90.55
2023-01-23T11:32:24.404Z,90.08
2023-01-23T11:37:24.578Z,88.58
2023-01-23T11:42:18.081Z,88.96
2023-01-23T11:47:15.529Z,87.51
2023-01-23T11:52:37.028Z,84.93
2023-01-23T11:58:06.140Z,83.83
2023-01-23T12:03:06.894Z,84.21
2023-01-23T12:08:22.082Z,84.34
2023-01-23T12:13:13.719Z,84.27
2023-01-23T12:18:34.938Z,85.19
2023-01-23T12:23:37.778Z,85.34
2023-01-23T12:28:51.913Z,85.77
2023-01-23T12:33:59.733Z,85.75
2023-01-23T12:39:28.796Z,86.83
2023-01-23T12:44:29.453Z,85.59
2023-01-23T12:49:39.704Z,85.54
2023-01-23T12:55:02.103Z,85.46
2023-01-23T13:00:09.908Z,84.79
2023-01-23T13:05:14.084Z,85.00
2023-01-23T13:10:51.892Z,84.59
2023-01-23T13:15:44.244Z,84.41
2023-01-23T13:21:14.675Z,84.84
2023-01-23T13:26:15.689Z,85.61
2023-01-23T13:31:40.588Z,86.71
2023-01-23T13:36:35.334Z,86.26
2023-01-23T13:41:34.058Z,85.73
2023-01-23T14:28:51.691Z,82.22
2023-01-23T14:33:45.469Z,82.05
2023-01-23T14:38:37.764Z,82.88
2023-01-23T14:43:29.922Z,82.02
2023-01-23T14:48:22.276Z,82.15
2023-01-23T14:53:16.173Z,82.66
2023-01-23T14:58:16.145Z,83.14
2023-01-23T15:03:12.630Z,83.54
2023-01-23T15:08:21.219Z,83.62
2023-01-23T15:13:19.072Z,84.54
2023-01-23T15:18:24.293Z,84.23
2023-01-23T15:23:18.736Z,85.45
2023-01-23T15:28:30.327Z,85.62
2023-01-23T15:33:31.336Z,85.50
2023-01-23T15:38:26.572Z,86.02
2023-01-23T15:43:19.455Z,85.33
2023-01-23T15:48:11.212Z,86.31
2023-01-23T15:53:03.198Z,86.56
2023-01-23T15:57:56.137Z,86.17
2023-01-23T16:02:56.321Z,86.51
2023-01-23T16:07:49.217Z,87.11
2023-01-23T16:12:42.701Z,86.80
2023-01-23T16:17:42.081Z,87.20
2023-01-23T16:22:35.326Z,87.20
2023-01-23T16:27:27.879Z,87.19
2023-01-23T16:32:20.075Z,87.48
2023-01-23T16:37:16.511Z,87.52
2023-01-23T16:42:19.385Z,87.84
2023-01-23T16:47:11.131Z,87.55
2023-01-23T16:52:04.511Z,87.79
2023-01-23T16:56:58.212Z,88.19
2023-01-23T17:01:52.236Z,88.06
2023-01-23T17:06:44.309Z,88.11
2023-01-23T17:11:46.524Z,87.92
2023-01-23T17:16:38.402Z,88.18
2023-01-23T17:21:34.085Z,88.18
2023-01-23T17:26:25.833Z,88.72
2023-01-23T17:31:23.720Z,88.81
2023-01-23T17:36:15.769Z,89.58
2023-01-23T17:41:12.832Z,90.19
2023-01-23T17:46:05.160Z,90.21
2023-01-23T17:50:57.807Z,90.75
2023-01-23T17:55:51.496Z,90.44
2023-01-23T18:00:45.338Z,90.77
2023-01-23T18:05:37.082Z,90.93
2023-01-23T18:10:29.880Z,91.39
2023-01-23T18:15:35.333Z,91.38
2023-01-23T18:20:28.527Z,91.48
2023-01-23T18:25:21.952Z,91.66
2023-01-23T18:30:35.611Z,92.03
2023-01-23T18:35:43.234Z,92.22
2023-01-23T18:40:34.901Z,92.77
2023-01-23T18:45:27.922Z,92.76
2023-01-23T18:50:22.943Z,92.90
2023-01-23T18:55:38.776Z,93.12
2023-01-23T19:00:52.381Z,93.54
2023-01-23T19:05:45.918Z,93.51
2023-01-23T19:10:48.575Z,93.35
2023-01-23T19:15:40.652Z,92.84
2023-01-23T19:20:41.722Z,92.92
2023-01-23T19:25:33.896Z,92.97
2023-01-23T19:30:26.605Z,93.22
2023-01-23T19:35:18.691Z,93.25
2023-01-23T19:40:12.685Z,93.34
2023-01-23T19:45:04.888Z,93.31
2023-01-23T19:49:56.607Z,93.63
2023-01-23T19:54:48.376Z,93.54
2023-01-23T19:59:40.472Z,93.18
2023-01-23T20:04:32.538Z,93.03
2023-01-23T20:09:24.294Z,92.74
2023-01-23T20:14:16.341Z,93.03
2023-01-23T20:19:08.435Z,93.26
2023-01-23T20:24:00.420Z,92.90
2023-01-23T20:28:56.281Z,92.62
2023-01-23T20:33:48.057Z,92.63
2023-01-23T20:38:40.732Z,93.25
2023-01-23T20:43:32.656Z,92.61
2023-01-23T20:48:24.414Z,92.51
2023-01-23T20:53:32.130Z,92.94
2023-01-23T20:58:50.443Z,92.94
2023-01-23T21:03:42.652Z,92.84
2023-01-23T21:08:35.276Z,92.44
2023-01-23T21:13:26.989Z,92.02
2023-01-23T21:18:18.795Z,91.55
2023-01-23T21:23:10.635Z,91.93
2023-01-23T21:28:02.472Z,91.48
2023-01-23T21:32:54.206Z,91.97
2023-01-23T21:37:45.959Z,91.91
2023-01-23T21:42:37.776Z,91.73
2023-01-23T21:47:29.439Z,92.43
2023-01-23T21:52:21.319Z,92.16
2023-01-23T21:57:13.133Z,92.13
2023-01-23T22:02:04.861Z,92.00
2023-01-23T22:06:58.615Z,92.52
2023-01-23T22:11:50.467Z,92.88
2023-01-23T22:16:50.786Z,92.24
2023-01-23T22:21:43.904Z,92.50
2023-01-23T22:26:35.732Z,92.86
2023-01-23T22:31:27.603Z,93.52
2023-01-23T22:36:20.219Z,94.06
2023-01-23T22:41:15.221Z,93.71
2023-01-23T22:46:19.276Z,93.46
2023-01-23T22:51:17.596Z,93.25
2023-01-23T22:56:10.144Z,93.61
2023-01-23T23:01:02.296Z,93.77
2023-01-23T23:06:02.587Z,94.46
2023-01-23T23:11:02.954Z,95.43
2023-01-23T23:15:55.238Z,95.49
2023-01-23T23:20:47.120Z,95.88
2023-01-23T23:25:39.051Z,96.26
2023-01-23T23:30:30.808Z,95.19
2023-01-23T23:35:22.867Z,93.55
2023-01-23T23:40:15.090Z,94.18
2023-01-23T23:45:08.813Z,94.48
2023-01-23T23:50:00.646Z,95.72
2023-01-23T23:54:52.456Z,95.42
2023-01-23T23:59:44.196Z,95.06
